sensor_id;sensor_type;location;lat;lon;timestamp;temperature;humidity
66343;DHT22;53144;51.524;5.080;2022-11-03T00:01:35;11.52;81.73
66343;DHT22;53144;51.524;5.080;2022-11-03T00:04:02;11.47;81.84
66343;DHT22;53144;51.524;5.080;2022-11-03T00:06:28;11.44;81.93
66343;DHT22;53144;51.524;5.080;2022-11-03T00:08:56;11.52;81.51
66343;DHT22;53144;51.524;5.080;2022-11-03T00:11:22;11.62;81.13
66343;DHT22;53144;51.524;5.080;2022-11-03T00:13:48;11.57;81.43
66343;DHT22;53144;51.524;5.080;2022-11-03T00:16:13;11.57;81.33
66343;DHT22;53144;51.524;5.080;2022-11-03T00:18:38;11.57;81.18
66343;DHT22;53144;51.524;5.080;2022-11-03T00:21:10;11.59;81.11
66343;DHT22;53144;51.524;5.080;2022-11-03T00:23:41;11.53;81.32
66343;DHT22;53144;51.524;5.080;2022-11-03T00:26:23;11.60;80.85
66343;DHT22;53144;51.524;5.080;2022-11-03T00:28:56;11.64;80.86
66343;DHT22;53144;51.524;5.080;2022-11-03T00:31:42;11.62;81.17
66343;DHT22;53144;51.524;5.080;2022-11-03T00:34:11;11.57;81.35
66343;DHT22;53144;51.524;5.080;2022-11-03T00:36:41;11.57;81.21
66343;DHT22;53144;51.524;5.080;2022-11-03T00:39:10;11.62;81.20
66343;DHT22;53144;51.524;5.080;2022-11-03T00:41:37;11.63;81.33
66343;DHT22;53144;51.524;5.080;2022-11-03T00:44:13;11.64;81.26
66343;DHT22;53144;51.524;5.080;2022-11-03T00:46:39;11.63;81.35
66343;DHT22;53144;51.524;5.080;2022-11-03T00:49:04;11.69;81.10
66343;DHT22;53144;51.524;5.080;2022-11-03T00:51:33;11.73;80.99
66343;DHT22;53144;51.524;5.080;2022-11-03T00:54:03;11.69;81.36
66343;DHT22;53144;51.524;5.080;2022-11-03T00:56:31;11.67;81.43
66343;DHT22;53144;51.524;5.080;2022-11-03T00:59:00;11.70;81.44
66343;DHT22;53144;51.524;5.080;2022-11-03T01:01:29;11.67;81.55
66343;DHT22;53144;51.524;5.080;2022-11-03T01:03:59;11.67;81.39
66343;DHT22;53144;51.524;5.080;2022-11-03T01:06:45;11.73;81.37
66343;DHT22;53144;51.524;5.080;2022-11-03T01:09:22;11.67;81.70
66343;DHT22;53144;51.524;5.080;2022-11-03T01:11:57;11.64;82.02
66343;DHT22;53144;51.524;5.080;2022-11-03T01:14:27;11.62;82.05
66343;DHT22;53144;51.524;5.080;2022-11-03T01:16:53;11.63;82.11
66343;DHT22;53144;51.524;5.080;2022-11-03T01:19:20;11.62;82.11
66343;DHT22;53144;51.524;5.080;2022-11-03T01:21:45;11.60;82.20
66343;DHT22;53144;51.524;5.080;2022-11-03T01:24:11;11.60;82.42
66343;DHT22;53144;51.524;5.080;2022-11-03T01:26:41;11.56;82.48
66343;DHT22;53144;51.524;5.080;2022-11-03T01:29:10;11.53;82.70
66343;DHT22;53144;51.524;5.080;2022-11-03T01:31:39;11.52;82.74
66343;DHT22;53144;51.524;5.080;2022-11-03T01:34:05;11.54;82.37
66343;DHT22;53144;51.524;5.080;2022-11-03T01:36:33;11.56;82.71
66343;DHT22;53144;51.524;5.080;2022-11-03T01:38:58;11.56;82.53
66343;DHT22;53144;51.524;5.080;2022-11-03T01:41:27;11.56;82.79
66343;DHT22;53144;51.524;5.080;2022-11-03T01:49:23;11.50;83.05
66343;DHT22;53144;51.524;5.080;2022-11-03T01:51:58;11.42;83.48
66343;DHT22;53144;51.524;5.080;2022-11-03T01:54:27;11.54;83.02
66343;DHT22;53144;51.524;5.080;2022-11-03T01:56:54;11.47;83.33
66343;DHT22;53144;51.524;5.080;2022-11-03T01:59:21;11.46;83.61
66343;DHT22;53144;51.524;5.080;2022-11-03T02:01:47;11.47;83.60
66343;DHT22;53144;51.524;5.080;2022-11-03T02:04:14;11.44;83.64
66343;DHT22;53144;51.524;5.080;2022-11-03T02:06:41;11.47;83.52
66343;DHT22;53144;51.524;5.080;2022-11-03T02:09:09;11.53;83.42
66343;DHT22;53144;51.524;5.080;2022-11-03T02:11:36;11.52;83.51
66343;DHT22;53144;51.524;5.080;2022-11-03T02:14:24;11.50;83.63
66343;DHT22;53144;51.524;5.080;2022-11-03T02:16:52;11.49;83.73
66343;DHT22;53144;51.524;5.080;2022-11-03T02:19:35;11.53;83.47
66343;DHT22;53144;51.524;5.080;2022-11-03T02:27:41;11.59;83.51
66343;DHT22;53144;51.524;5.080;2022-11-03T02:30:07;11.63;83.33
66343;DHT22;53144;51.524;5.080;2022-11-03T02:35:22;11.74;83.03
66343;DHT22;53144;51.524;5.080;2022-11-03T02:37:56;11.73;83.24
66343;DHT22;53144;51.524;5.080;2022-11-03T02:40:44;11.77;83.08
66343;DHT22;53144;51.524;5.080;2022-11-03T02:43:32;11.78;83.02
66343;DHT22;53144;51.524;5.080;2022-11-03T02:46:05;11.78;83.21
66343;DHT22;53144;51.524;5.080;2022-11-03T02:48:35;11.80;83.34
66343;DHT22;53144;51.524;5.080;2022-11-03T02:51:04;11.78;83.20
66343;DHT22;53144;51.524;5.080;2022-11-03T02:53:29;11.83;83.13
66343;DHT22;53144;51.524;5.080;2022-11-03T02:56:17;11.80;83.32
66343;DHT22;53144;51.524;5.080;2022-11-03T02:58:57;11.78;83.57
66343;DHT22;53144;51.524;5.080;2022-11-03T03:01:48;11.81;83.57
66343;DHT22;53144;51.524;5.080;2022-11-03T03:04:21;11.80;83.54
66343;DHT22;53144;51.524;5.080;2022-11-03T03:07:04;11.78;83.64
66343;DHT22;53144;51.524;5.080;2022-11-03T03:09:46;11.78;83.74
66343;DHT22;53144;51.524;5.080;2022-11-03T03:12:17;11.78;83.75
66343;DHT22;53144;51.524;5.080;2022-11-03T03:14:47;11.80;83.72
66343;DHT22;53144;51.524;5.080;2022-11-03T03:20:10;11.77;84.01
66343;DHT22;53144;51.524;5.080;2022-11-03T03:22:55;11.70;84.36
66343;DHT22;53144;51.524;5.080;2022-11-03T03:25:25;11.71;84.31
66343;DHT22;53144;51.524;5.080;2022-11-03T03:28:09;11.73;84.17
66343;DHT22;53144;51.524;5.080;2022-11-03T03:30:37;11.74;84.27
66343;DHT22;53144;51.524;5.080;2022-11-03T03:33:07;11.74;84.41
66343;DHT22;53144;51.524;5.080;2022-11-03T03:35:43;11.70;84.81
66343;DHT22;53144;51.524;5.080;2022-11-03T03:38:18;11.74;84.56
66343;DHT22;53144;51.524;5.080;2022-11-03T03:40:59;11.73;84.53
66343;DHT22;53144;51.524;5.080;2022-11-03T03:43:28;11.73;84.62
66343;DHT22;53144;51.524;5.080;2022-11-03T03:45:58;11.77;84.64
66343;DHT22;53144;51.524;5.080;2022-11-03T03:48:25;11.83;84.35
66343;DHT22;53144;51.524;5.080;2022-11-03T03:50:50;11.78;84.51
66343;DHT22;53144;51.524;5.080;2022-11-03T03:53:17;11.71;84.84
66343;DHT22;53144;51.524;5.080;2022-11-03T03:55:45;11.78;84.79
66343;DHT22;53144;51.524;5.080;2022-11-03T03:58:13;11.81;84.58
66343;DHT22;53144;51.524;5.080;2022-11-03T04:00:40;11.74;84.80
66343;DHT22;53144;51.524;5.080;2022-11-03T04:03:11;11.70;85.14
66343;DHT22;53144;51.524;5.080;2022-11-03T04:05:41;11.70;85.36
66343;DHT22;53144;51.524;5.080;2022-11-03T04:08:11;11.81;85.07
66343;DHT22;53144;51.524;5.080;2022-11-03T04:10:40;11.83;85.00
66343;DHT22;53144;51.524;5.080;2022-11-03T04:13:26;11.81;85.03
66343;DHT22;53144;51.524;5.080;2022-11-03T04:16:10;11.83;85.12
66343;DHT22;53144;51.524;5.080;2022-11-03T04:18:54;11.87;85.07
66343;DHT22;53144;51.524;5.080;2022-11-03T04:21:55;11.91;85.07
66343;DHT22;53144;51.524;5.080;2022-11-03T04:24:39;11.90;85.10
66343;DHT22;53144;51.524;5.080;2022-11-03T04:27:26;11.97;84.90
66343;DHT22;53144;51.524;5.080;2022-11-03T04:30:17;11.98;85.14
66343;DHT22;53144;51.524;5.080;2022-11-03T04:32:52;12.01;84.84
66343;DHT22;53144;51.524;5.080;2022-11-03T04:35:24;11.99;84.97
66343;DHT22;53144;51.524;5.080;2022-11-03T04:37:54;11.97;85.15
66343;DHT22;53144;51.524;5.080;2022-11-03T04:40:23;11.97;85.24
66343;DHT22;53144;51.524;5.080;2022-11-03T04:42:48;11.97;85.37
66343;DHT22;53144;51.524;5.080;2022-11-03T04:45:23;11.97;85.44
66343;DHT22;53144;51.524;5.080;2022-11-03T04:47:49;11.97;85.59
66343;DHT22;53144;51.524;5.080;2022-11-03T04:50:21;11.98;85.52
66343;DHT22;53144;51.524;5.080;2022-11-03T04:52:47;11.98;85.62
66343;DHT22;53144;51.524;5.080;2022-11-03T04:55:15;12.02;85.60
66343;DHT22;53144;51.524;5.080;2022-11-03T04:57:42;12.01;85.64
66343;DHT22;53144;51.524;5.080;2022-11-03T05:00:16;12.02;85.65
66343;DHT22;53144;51.524;5.080;2022-11-03T05:02:47;11.98;85.82
66343;DHT22;53144;51.524;5.080;2022-11-03T05:05:22;11.93;86.07
66343;DHT22;53144;51.524;5.080;2022-11-03T05:07:50;11.97;85.96
66343;DHT22;53144;51.524;5.080;2022-11-03T05:10:26;11.98;85.91
66343;DHT22;53144;51.524;5.080;2022-11-03T05:13:02;12.01;85.92
66343;DHT22;53144;51.524;5.080;2022-11-03T05:15:42;12.02;85.97
66343;DHT22;53144;51.524;5.080;2022-11-03T05:18:33;11.98;86.31
66343;DHT22;53144;51.524;5.080;2022-11-03T05:21:05;11.95;86.33
66343;DHT22;53144;51.524;5.080;2022-11-03T05:23:59;11.99;86.25
66343;DHT22;53144;51.524;5.080;2022-11-03T05:26:34;12.04;86.29
66343;DHT22;53144;51.524;5.080;2022-11-03T05:29:25;11.98;86.53
66343;DHT22;53144;51.524;5.080;2022-11-03T05:31:54;11.97;86.70
66343;DHT22;53144;51.524;5.080;2022-11-03T05:34:32;11.98;86.65
66343;DHT22;53144;51.524;5.080;2022-11-03T05:39:42;11.99;86.98
66343;DHT22;53144;51.524;5.080;2022-11-03T05:42:36;12.01;87.06
66343;DHT22;53144;51.524;5.080;2022-11-03T05:45:20;11.99;87.06
66343;DHT22;53144;51.524;5.080;2022-11-03T05:47:56;12.04;87.04
66343;DHT22;53144;51.524;5.080;2022-11-03T05:50:40;12.08;86.94
66343;DHT22;53144;51.524;5.080;2022-11-03T05:53:25;12.01;87.10
66343;DHT22;53144;51.524;5.080;2022-11-03T05:55:52;12.04;87.22
66343;DHT22;53144;51.524;5.080;2022-11-03T05:58:30;11.99;87.28
66343;DHT22;53144;51.524;5.080;2022-11-03T06:00:58;11.98;87.49
66343;DHT22;53144;51.524;5.080;2022-11-03T06:03:28;11.98;87.64
66343;DHT22;53144;51.524;5.080;2022-11-03T06:05:54;11.98;87.64
66343;DHT22;53144;51.524;5.080;2022-11-03T06:08:27;12.10;87.31
66343;DHT22;53144;51.524;5.080;2022-11-03T06:10:56;12.08;87.40
66343;DHT22;53144;51.524;5.080;2022-11-03T06:13:33;12.02;87.55
66343;DHT22;53144;51.524;5.080;2022-11-03T06:16:56;12.02;87.70
66343;DHT22;53144;51.524;5.080;2022-11-03T06:21:46;12.08;87.63
66343;DHT22;53144;51.524;5.080;2022-11-03T06:24:13;12.14;87.49
66343;DHT22;53144;51.524;5.080;2022-11-03T06:26:41;12.14;87.55
66343;DHT22;53144;51.524;5.080;2022-11-03T06:29:19;12.14;87.56
66343;DHT22;53144;51.524;5.080;2022-11-03T06:31:48;12.11;87.62
66343;DHT22;53144;51.524;5.080;2022-11-03T06:36:56;12.11;87.73
66343;DHT22;53144;51.524;5.080;2022-11-03T06:39:23;12.15;87.56
66343;DHT22;53144;51.524;5.080;2022-11-03T06:41:49;12.14;87.54
66343;DHT22;53144;51.524;5.080;2022-11-03T06:44:23;12.10;87.71
66343;DHT22;53144;51.524;5.080;2022-11-03T06:46:50;12.08;87.83
66343;DHT22;53144;51.524;5.080;2022-11-03T06:49:49;12.17;87.47
66343;DHT22;53144;51.524;5.080;2022-11-03T06:52:25;12.17;87.53
66343;DHT22;53144;51.524;5.080;2022-11-03T06:55:13;12.22;87.48
66343;DHT22;53144;51.524;5.080;2022-11-03T06:57:46;12.22;87.53
66343;DHT22;53144;51.524;5.080;2022-11-03T07:00:25;12.22;87.52
66343;DHT22;53144;51.524;5.080;2022-11-03T07:02:59;12.22;87.56
66343;DHT22;53144;51.524;5.080;2022-11-03T07:05:28;12.21;87.67
66343;DHT22;53144;51.524;5.080;2022-11-03T07:07:59;12.28;87.36
66343;DHT22;53144;51.524;5.080;2022-11-03T07:10:30;12.29;87.32
66343;DHT22;53144;51.524;5.080;2022-11-03T07:13:00;12.32;87.12
66343;DHT22;53144;51.524;5.080;2022-11-03T07:15:34;12.35;86.95
66343;DHT22;53144;51.524;5.080;2022-11-03T07:20:52;12.41;86.85
66343;DHT22;53144;51.524;5.080;2022-11-03T07:23:22;12.43;86.68
66343;DHT22;53144;51.524;5.080;2022-11-03T07:25:53;12.52;86.47
66343;DHT22;53144;51.524;5.080;2022-11-03T07:28:24;12.49;86.47
66343;DHT22;53144;51.524;5.080;2022-11-03T07:30:50;12.59;86.19
66343;DHT22;53144;51.524;5.080;2022-11-03T07:33:18;12.57;86.17
66343;DHT22;53144;51.524;5.080;2022-11-03T07:35:45;12.59;85.90
66343;DHT22;53144;51.524;5.080;2022-11-03T07:38:17;12.64;86.03
66343;DHT22;53144;51.524;5.080;2022-11-03T07:40:43;12.63;85.98
66343;DHT22;53144;51.524;5.080;2022-11-03T07:43:18;12.64;86.04
66343;DHT22;53144;51.524;5.080;2022-11-03T07:45:50;12.62;86.10
66343;DHT22;53144;51.524;5.080;2022-11-03T07:48:44;12.62;86.11
66343;DHT22;53144;51.524;5.080;2022-11-03T07:51:42;12.63;86.06
66343;DHT22;53144;51.524;5.080;2022-11-03T07:56:44;12.66;86.56
66343;DHT22;53144;51.524;5.080;2022-11-03T07:59:15;12.62;86.15
66343;DHT22;53144;51.524;5.080;2022-11-03T08:01:45;12.64;85.72
66343;DHT22;53144;51.524;5.080;2022-11-03T08:04:16;12.70;86.07
66343;DHT22;53144;51.524;5.080;2022-11-03T08:06:44;12.73;85.51
66343;DHT22;53144;51.524;5.080;2022-11-03T08:09:09;12.75;85.82
66343;DHT22;53144;51.524;5.080;2022-11-03T08:11:34;12.75;85.71
66343;DHT22;53144;51.524;5.080;2022-11-03T08:14:00;12.83;85.02
66343;DHT22;53144;51.524;5.080;2022-11-03T08:16:25;12.90;84.59
66343;DHT22;53144;51.524;5.080;2022-11-03T08:18:51;12.91;84.70
66343;DHT22;53144;51.524;5.080;2022-11-03T08:21:16;12.97;84.37
66343;DHT22;53144;51.524;5.080;2022-11-03T08:23:42;13.04;83.80
66343;DHT22;53144;51.524;5.080;2022-11-03T08:26:08;13.04;83.64
66343;DHT22;53144;51.524;5.080;2022-11-03T08:28:34;13.10;83.71
66343;DHT22;53144;51.524;5.080;2022-11-03T08:30:59;13.11;83.52
66343;DHT22;53144;51.524;5.080;2022-11-03T08:33:26;13.08;83.59
66343;DHT22;53144;51.524;5.080;2022-11-03T08:35:53;13.11;83.56
66343;DHT22;53144;51.524;5.080;2022-11-03T08:38:18;13.10;83.12
66343;DHT22;53144;51.524;5.080;2022-11-03T08:40:44;13.18;82.88
66343;DHT22;53144;51.524;5.080;2022-11-03T08:43:10;13.18;82.72
66343;DHT22;53144;51.524;5.080;2022-11-03T08:45:38;13.21;83.32
66343;DHT22;53144;51.524;5.080;2022-11-03T08:48:05;13.21;83.15
66343;DHT22;53144;51.524;5.080;2022-11-03T08:50:30;13.27;82.80
66343;DHT22;53144;51.524;5.080;2022-11-03T08:52:55;13.31;82.39
66343;DHT22;53144;51.524;5.080;2022-11-03T08:55:21;13.27;82.78
66343;DHT22;53144;51.524;5.080;2022-11-03T08:57:46;13.32;82.52
66343;DHT22;53144;51.524;5.080;2022-11-03T09:00:12;13.32;83.24
66343;DHT22;53144;51.524;5.080;2022-11-03T09:02:38;13.34;82.98
66343;DHT22;53144;51.524;5.080;2022-11-03T09:05:04;13.41;83.00
66343;DHT22;53144;51.524;5.080;2022-11-03T09:07:33;13.41;82.34
66343;DHT22;53144;51.524;5.080;2022-11-03T09:09:58;13.41;82.29
66343;DHT22;53144;51.524;5.080;2022-11-03T09:12:23;13.48;82.29
66343;DHT22;53144;51.524;5.080;2022-11-03T09:14:49;13.41;81.52
66343;DHT22;53144;51.524;5.080;2022-11-03T09:17:14;13.47;82.20
66343;DHT22;53144;51.524;5.080;2022-11-03T09:19:42;13.45;81.52
66343;DHT22;53144;51.524;5.080;2022-11-03T09:22:11;13.48;81.33
66343;DHT22;53144;51.524;5.080;2022-11-03T09:24:36;13.49;81.29
66343;DHT22;53144;51.524;5.080;2022-11-03T09:27:02;13.54;81.53
66343;DHT22;53144;51.524;5.080;2022-11-03T09:29:29;13.52;81.40
66343;DHT22;53144;51.524;5.080;2022-11-03T09:31:54;13.51;81.45
66343;DHT22;53144;51.524;5.080;2022-11-03T09:34:19;13.57;81.06
66343;DHT22;53144;51.524;5.080;2022-11-03T09:36:45;13.54;80.78
66343;DHT22;53144;51.524;5.080;2022-11-03T09:39:10;13.55;80.36
66343;DHT22;53144;51.524;5.080;2022-11-03T09:41:36;13.58;80.49
66343;DHT22;53144;51.524;5.080;2022-11-03T09:44:05;13.61;80.43
66343;DHT22;53144;51.524;5.080;2022-11-03T09:46:34;13.57;81.08
66343;DHT22;53144;51.524;5.080;2022-11-03T09:49:00;13.55;80.78
66343;DHT22;53144;51.524;5.080;2022-11-03T09:51:32;13.55;80.58
66343;DHT22;53144;51.524;5.080;2022-11-03T09:54:02;13.55;80.87
66343;DHT22;53144;51.524;5.080;2022-11-03T09:56:29;13.59;80.64
66343;DHT22;53144;51.524;5.080;2022-11-03T09:58:55;13.63;80.08
66343;DHT22;53144;51.524;5.080;2022-11-03T10:01:21;13.68;79.93
66343;DHT22;53144;51.524;5.080;2022-11-03T10:03:47;13.68;79.81
66343;DHT22;53144;51.524;5.080;2022-11-03T10:06:12;13.71;79.90
66343;DHT22;53144;51.524;5.080;2022-11-03T10:08:43;13.71;79.46
66343;DHT22;53144;51.524;5.080;2022-11-03T10:11:10;13.78;80.23
66343;DHT22;53144;51.524;5.080;2022-11-03T10:13:46;13.75;79.88
66343;DHT22;53144;51.524;5.080;2022-11-03T10:16:17;13.82;79.53
66343;DHT22;53144;51.524;5.080;2022-11-03T10:18:43;13.96;79.21
66343;DHT22;53144;51.524;5.080;2022-11-03T10:23:40;14.21;78.52
66343;DHT22;53144;51.524;5.080;2022-11-03T10:26:17;14.21;78.69
66343;DHT22;53144;51.524;5.080;2022-11-03T10:29:04;14.24;77.97
66343;DHT22;53144;51.524;5.080;2022-11-03T10:31:57;14.23;78.16
66343;DHT22;53144;51.524;5.080;2022-11-03T10:34:27;14.30;78.43
66343;DHT22;53144;51.524;5.080;2022-11-03T10:37:15;14.34;77.50
66343;DHT22;53144;51.524;5.080;2022-11-03T10:39:57;14.42;78.58
66343;DHT22;53144;51.524;5.080;2022-11-03T10:42:27;14.57;77.59
66343;DHT22;53144;51.524;5.080;2022-11-03T10:45:18;14.60;76.75
66343;DHT22;53144;51.524;5.080;2022-11-03T10:47:58;14.68;76.53
66343;DHT22;53144;51.524;5.080;2022-11-03T10:50:26;14.71;76.04
66343;DHT22;53144;51.524;5.080;2022-11-03T10:52:52;14.81;76.51
66343;DHT22;53144;51.524;5.080;2022-11-03T10:55:18;14.78;75.88
66343;DHT22;53144;51.524;5.080;2022-11-03T10:57:44;14.84;75.50
66343;DHT22;53144;51.524;5.080;2022-11-03T11:03:34;14.85;75.32
66343;DHT22;53144;51.524;5.080;2022-11-03T11:09:27;14.91;74.79
66343;DHT22;53144;51.524;5.080;2022-11-03T11:12:47;14.89;75.15
66343;DHT22;53144;51.524;5.080;2022-11-03T11:23:51;15.05;74.39
66343;DHT22;53144;51.524;5.080;2022-11-03T11:26:38;15.25;75.34
66343;DHT22;53144;51.524;5.080;2022-11-03T11:31:43;15.49;72.63
66343;DHT22;53144;51.524;5.080;2022-11-03T11:36:35;15.46;72.63
66343;DHT22;53144;51.524;5.080;2022-11-03T11:42:07;15.42;73.68
66343;DHT22;53144;51.524;5.080;2022-11-03T11:47:20;15.50;73.37
66343;DHT22;53144;51.524;5.080;2022-11-03T11:49:46;15.46;73.24
66343;DHT22;53144;51.524;5.080;2022-11-03T11:52:12;15.40;73.28
66343;DHT22;53144;51.524;5.080;2022-11-03T11:54:40;15.37;73.04
66343;DHT22;53144;51.524;5.080;2022-11-03T11:57:17;15.42;73.47
66343;DHT22;53144;51.524;5.080;2022-11-03T11:59:47;15.47;72.73
66343;DHT22;53144;51.524;5.080;2022-11-03T12:02:22;15.53;72.10
66343;DHT22;53144;51.524;5.080;2022-11-03T12:04:53;15.57;73.49
66343;DHT22;53144;51.524;5.080;2022-11-03T12:07:33;15.60;72.16
66343;DHT22;53144;51.524;5.080;2022-11-03T12:10:11;15.57;72.34
66343;DHT22;53144;51.524;5.080;2022-11-03T12:12:38;15.54;73.28
66343;DHT22;53144;51.524;5.080;2022-11-03T12:15:04;15.57;72.89
66343;DHT22;53144;51.524;5.080;2022-11-03T12:17:30;15.75;72.92
66343;DHT22;53144;51.524;5.080;2022-11-03T12:19:57;15.87;72.09
66343;DHT22;53144;51.524;5.080;2022-11-03T12:25:03;16.04;71.61
66343;DHT22;53144;51.524;5.080;2022-11-03T12:30:03;16.09;70.14
66343;DHT22;53144;51.524;5.080;2022-11-03T12:32:29;16.02;70.92
66343;DHT22;53144;51.524;5.080;2022-11-03T12:35:04;16.06;70.63
66343;DHT22;53144;51.524;5.080;2022-11-03T12:37:32;16.22;70.78
66343;DHT22;53144;51.524;5.080;2022-11-03T12:40:11;16.15;70.03
66343;DHT22;53144;51.524;5.080;2022-11-03T12:42:56;15.90;71.85
66343;DHT22;53144;51.524;5.080;2022-11-03T12:45:26;15.81;71.50
66343;DHT22;53144;51.524;5.080;2022-11-03T12:47:51;15.67;70.91
66343;DHT22;53144;51.524;5.080;2022-11-03T12:50:20;15.56;72.38
66343;DHT22;53144;51.524;5.080;2022-11-03T12:52:55;15.60;71.34
66343;DHT22;53144;51.524;5.080;2022-11-03T12:55:22;15.61;71.35
66343;DHT22;53144;51.524;5.080;2022-11-03T12:57:48;15.63;72.17
66343;DHT22;53144;51.524;5.080;2022-11-03T13:00:13;15.63;71.84
66343;DHT22;53144;51.524;5.080;2022-11-03T13:02:39;15.64;71.68
66343;DHT22;53144;51.524;5.080;2022-11-03T13:05:05;15.54;71.38
66343;DHT22;53144;51.524;5.080;2022-11-03T13:07:31;15.51;72.04
66343;DHT22;53144;51.524;5.080;2022-11-03T13:09:57;15.49;72.87
66343;DHT22;53144;51.524;5.080;2022-11-03T13:12:22;15.50;71.89
66343;DHT22;53144;51.524;5.080;2022-11-03T13:14:57;15.50;72.75
66343;DHT22;53144;51.524;5.080;2022-11-03T13:17:24;15.50;72.85
66343;DHT22;53144;51.524;5.080;2022-11-03T13:19:50;15.44;72.15
66343;DHT22;53144;51.524;5.080;2022-11-03T13:22:15;15.37;73.42
66343;DHT22;53144;51.524;5.080;2022-11-03T13:24:41;15.33;73.26
66343;DHT22;53144;51.524;5.080;2022-11-03T13:27:09;15.27;73.37
66343;DHT22;53144;51.524;5.080;2022-11-03T13:29:35;15.26;72.88
66343;DHT22;53144;51.524;5.080;2022-11-03T13:32:09;15.22;73.05
66343;DHT22;53144;51.524;5.080;2022-11-03T13:34:34;15.18;73.68
66343;DHT22;53144;51.524;5.080;2022-11-03T13:37:00;15.09;73.61
66343;DHT22;53144;51.524;5.080;2022-11-03T13:39:25;15.13;73.19
66343;DHT22;53144;51.524;5.080;2022-11-03T13:41:51;15.09;73.89
66343;DHT22;53144;51.524;5.080;2022-11-03T13:44:17;15.05;73.63
66343;DHT22;53144;51.524;5.080;2022-11-03T13:46:43;14.95;74.38
66343;DHT22;53144;51.524;5.080;2022-11-03T13:49:18;14.93;73.94
66343;DHT22;53144;51.524;5.080;2022-11-03T13:51:45;14.89;73.98
66343;DHT22;53144;51.524;5.080;2022-11-03T13:54:10;14.84;74.60
66343;DHT22;53144;51.524;5.080;2022-11-03T13:56:39;14.84;73.90
66343;DHT22;53144;51.524;5.080;2022-11-03T13:59:04;14.91;74.10
66343;DHT22;53144;51.524;5.080;2022-11-03T14:01:30;14.93;73.95
66343;DHT22;53144;51.524;5.080;2022-11-03T14:03:58;14.89;74.02
66343;DHT22;53144;51.524;5.080;2022-11-03T14:06:23;14.84;74.73
66343;DHT22;53144;51.524;5.080;2022-11-03T14:08:48;14.78;75.11
66343;DHT22;53144;51.524;5.080;2022-11-03T14:11:14;14.71;75.74
66343;DHT22;53144;51.524;5.080;2022-11-03T14:13:58;14.63;76.25
66343;DHT22;53144;51.524;5.080;2022-11-03T14:16:23;14.56;77.08
66343;DHT22;53144;51.524;5.080;2022-11-03T14:18:48;14.50;77.63
66343;DHT22;53144;51.524;5.080;2022-11-03T14:21:14;14.30;78.48
66343;DHT22;53144;51.524;5.080;2022-11-03T14:23:39;14.24;79.26
66343;DHT22;53144;51.524;5.080;2022-11-03T14:26:04;14.08;80.40
66343;DHT22;53144;51.524;5.080;2022-11-03T14:28:30;14.00;80.82
66343;DHT22;53144;51.524;5.080;2022-11-03T14:30:55;13.96;81.26
66343;DHT22;53144;51.524;5.080;2022-11-03T14:33:24;13.86;82.31
66343;DHT22;53144;51.524;5.080;2022-11-03T14:35:50;13.85;82.27
66343;DHT22;53144;51.524;5.080;2022-11-03T14:38:15;13.82;82.40
66343;DHT22;53144;51.524;5.080;2022-11-03T14:40:41;13.73;82.64
66343;DHT22;53144;51.524;5.080;2022-11-03T14:43:25;13.73;83.20
66343;DHT22;53144;51.524;5.080;2022-11-03T14:45:51;13.62;83.47
66343;DHT22;53144;51.524;5.080;2022-11-03T14:48:16;13.66;83.94
66343;DHT22;53144;51.524;5.080;2022-11-03T14:50:41;13.61;83.80
66343;DHT22;53144;51.524;5.080;2022-11-03T14:53:09;13.58;83.41
66343;DHT22;53144;51.524;5.080;2022-11-03T14:55:34;13.61;83.85
66343;DHT22;53144;51.524;5.080;2022-11-03T14:58:00;13.63;84.28
66343;DHT22;53144;51.524;5.080;2022-11-03T15:00:25;13.57;83.78
66343;DHT22;53144;51.524;5.080;2022-11-03T15:02:50;13.52;83.88
66343;DHT22;53144;51.524;5.080;2022-11-03T15:05:18;13.52;83.91
66343;DHT22;53144;51.524;5.080;2022-11-03T15:08:02;13.58;83.00
66343;DHT22;53144;51.524;5.080;2022-11-03T15:10:28;13.58;83.31
66343;DHT22;53144;51.524;5.080;2022-11-03T15:12:53;13.59;83.52
66343;DHT22;53144;51.524;5.080;2022-11-03T15:15:18;13.54;83.83
66343;DHT22;53144;51.524;5.080;2022-11-03T15:17:44;13.51;83.23
66343;DHT22;53144;51.524;5.080;2022-11-03T15:20:09;13.48;83.57
66343;DHT22;53144;51.524;5.080;2022-11-03T15:22:35;13.45;83.19
66343;DHT22;53144;51.524;5.080;2022-11-03T15:25:00;13.48;83.26
66343;DHT22;53144;51.524;5.080;2022-11-03T15:27:26;13.47;83.27
66343;DHT22;53144;51.524;5.080;2022-11-03T15:29:51;13.51;83.19
66343;DHT22;53144;51.524;5.080;2022-11-03T15:32:16;13.49;83.58
66343;DHT22;53144;51.524;5.080;2022-11-03T15:34:42;13.44;83.59
66343;DHT22;53144;51.524;5.080;2022-11-03T15:37:07;13.41;83.64
66343;DHT22;53144;51.524;5.080;2022-11-03T15:39:33;13.47;83.75
66343;DHT22;53144;51.524;5.080;2022-11-03T15:41:58;13.38;83.97
66343;DHT22;53144;51.524;5.080;2022-11-03T15:44:24;13.35;84.41
66343;DHT22;53144;51.524;5.080;2022-11-03T15:46:49;13.38;84.08
66343;DHT22;53144;51.524;5.080;2022-11-03T15:49:15;13.31;84.57
66343;DHT22;53144;51.524;5.080;2022-11-03T15:51:40;13.27;84.53
66343;DHT22;53144;51.524;5.080;2022-11-03T15:54:05;13.27;84.81
66343;DHT22;53144;51.524;5.080;2022-11-03T15:56:31;13.25;84.63
66343;DHT22;53144;51.524;5.080;2022-11-03T15:58:56;13.27;84.99
66343;DHT22;53144;51.524;5.080;2022-11-03T16:01:22;13.30;84.46
66343;DHT22;53144;51.524;5.080;2022-11-03T16:03:47;13.30;84.45
66343;DHT22;53144;51.524;5.080;2022-11-03T16:06:13;13.31;84.48
66343;DHT22;53144;51.524;5.080;2022-11-03T16:08:38;13.27;84.54
66343;DHT22;53144;51.524;5.080;2022-11-03T16:11:04;13.30;84.64
66343;DHT22;53144;51.524;5.080;2022-11-03T16:13:29;13.28;84.21
66343;DHT22;53144;51.524;5.080;2022-11-03T16:15:54;13.34;84.46
66343;DHT22;53144;51.524;5.080;2022-11-03T16:18:20;13.28;85.23
66343;DHT22;53144;51.524;5.080;2022-11-03T16:20:45;13.21;85.63
66343;DHT22;53144;51.524;5.080;2022-11-03T16:23:11;13.11;86.25
66343;DHT22;53144;51.524;5.080;2022-11-03T16:25:54;13.03;86.90
66343;DHT22;53144;51.524;5.080;2022-11-03T16:28:20;12.91;87.63
66343;DHT22;53144;51.524;5.080;2022-11-03T16:30:45;12.82;88.32
66343;DHT22;53144;51.524;5.080;2022-11-03T16:33:10;12.70;89.12
66343;DHT22;53144;51.524;5.080;2022-11-03T16:35:36;12.63;90.28
66343;DHT22;53144;51.524;5.080;2022-11-03T16:38:01;12.50;90.72
66343;DHT22;53144;51.524;5.080;2022-11-03T16:40:27;12.43;91.34
66343;DHT22;53144;51.524;5.080;2022-11-03T16:42:52;12.35;91.94
66343;DHT22;53144;51.524;5.080;2022-11-03T16:45:18;12.26;92.43
66343;DHT22;53144;51.524;5.080;2022-11-03T16:47:48;12.18;92.92
66343;DHT22;53144;51.524;5.080;2022-11-03T16:50:17;12.15;93.43
66343;DHT22;53144;51.524;5.080;2022-11-03T16:52:43;12.12;93.83
66343;DHT22;53144;51.524;5.080;2022-11-03T16:55:09;12.10;94.10